sensor_id;sensor_type;location;lat;lon;timestamp;pressure;altitude;pressure_sealevel;temperature;humidity
11413;BME280;5762;43.256;26.960;2023-01-30T00:02:09;100145.95;;;-0.55;100.00
11413;BME280;5762;43.256;26.960;2023-01-30T00:04:38;100141.19;;;-0.47;100.00
11413;BME280;5762;43.256;26.960;2023-01-30T00:07:07;100146.20;;;-0.63;100.00
11413;BME280;5762;43.256;26.960;2023-01-30T00:09:36;100148.34;;;-0.63;100.00
11413;BME280;5762;43.256;26.960;2023-01-30T00:12:05;100145.09;;;-0.65;100.00
11413;BME280;5762;43.256;26.960;2023-01-30T00:14:33;100154.87;;;-0.59;100.00
11413;BME280;5762;43.256;26.960;2023-01-30T00:17:02;100154.70;;;-0.80;100.00
11413;BME280;5762;43.256;26.960;2023-01-30T00:19:30;100155.61;;;-0.77;100.00
11413;BME280;5762;43.256;26.960;2023-01-30T00:21:58;100156.06;;;-0.86;100.00
11413;BME280;5762;43.256;26.960;2023-01-30T00:24:27;100155.67;;;-0.90;100.00
11413;BME280;5762;43.256;26.960;2023-01-30T00:26:56;100153.92;;;-0.87;100.00
11413;BME280;5762;43.256;26.960;2023-01-30T00:29:25;100153.20;;;-0.85;100.00
11413;BME280;5762;43.256;26.960;2023-01-30T00:31:54;100155.25;;;-0.87;100.00
11413;BME280;5762;43.256;26.960;2023-01-30T00:34:23;100162.63;;;-0.89;100.00
11413;BME280;5762;43.256;26.960;2023-01-30T00:36:52;100151.88;;;-0.85;100.00
11413;BME280;5762;43.256;26.960;2023-01-30T00:39:21;100151.48;;;-0.88;100.00
11413;BME280;5762;43.256;26.960;2023-01-30T00:41:49;100152.51;;;-0.89;100.00
11413;BME280;5762;43.256;26.960;2023-01-30T00:44:35;100153.75;;;-0.92;100.00
11413;BME280;5762;43.256;26.960;2023-01-30T00:47:20;100149.06;;;-0.96;100.00
11413;BME280;5762;43.256;26.960;2023-01-30T00:49:49;100142.00;;;-0.93;100.00
11413;BME280;5762;43.256;26.960;2023-01-30T00:52:17;100141.45;;;-0.86;100.00
11413;BME280;5762;43.256;26.960;2023-01-30T00:54:46;100138.77;;;-0.80;100.00
11413;BME280;5762;43.256;26.960;2023-01-30T00:57:16;100137.47;;;-0.86;100.00
11413;BME280;5762;43.256;26.960;2023-01-30T00:59:45;100134.97;;;-0.97;100.00
11413;BME280;5762;43.256;26.960;2023-01-30T01:02:13;100135.58;;;-0.95;100.00
11413;BME280;5762;43.256;26.960;2023-01-30T01:04:41;100130.27;;;-0.95;100.00
11413;BME280;5762;43.256;26.960;2023-01-30T01:07:11;100130.38;;;-0.99;100.00
11413;BME280;5762;43.256;26.960;2023-01-30T01:09:40;100135.97;;;-0.91;100.00
11413;BME280;5762;43.256;26.960;2023-01-30T01:12:09;100130.80;;;-0.80;100.00
11413;BME280;5762;43.256;26.960;2023-01-30T01:14:38;100132.59;;;-0.74;100.00
11413;BME280;5762;43.256;26.960;2023-01-30T01:17:07;100126.88;;;-0.93;100.00
11413;BME280;5762;43.256;26.960;2023-01-30T01:19:36;100127.00;;;-0.97;100.00
11413;BME280;5762;43.256;26.960;2023-01-30T01:22:04;100123.62;;;-0.95;100.00
11413;BME280;5762;43.256;26.960;2023-01-30T01:24:33;100119.56;;;-0.82;100.00
11413;BME280;5762;43.256;26.960;2023-01-30T01:27:02;100116.25;;;-0.93;100.00
11413;BME280;5762;43.256;26.960;2023-01-30T01:29:31;100111.84;;;-0.90;100.00
11413;BME280;5762;43.256;26.960;2023-01-30T01:31:59;100119.38;;;-0.87;100.00
11413;BME280;5762;43.256;26.960;2023-01-30T01:34:28;100113.95;;;-0.83;100.00
11413;BME280;5762;43.256;26.960;2023-01-30T01:36:57;100109.75;;;-0.81;100.00
11413;BME280;5762;43.256;26.960;2023-01-30T01:39:25;100116.36;;;-0.65;100.00
11413;BME280;5762;43.256;26.960;2023-01-30T01:41:54;100110.61;;;-0.72;100.00
11413;BME280;5762;43.256;26.960;2023-01-30T01:44:23;100109.23;;;-0.81;100.00
11413;BME280;5762;43.256;26.960;2023-01-30T01:46:54;100108.28;;;-0.93;100.00
11413;BME280;5762;43.256;26.960;2023-01-30T01:49:23;100102.37;;;-0.95;100.00
11413;BME280;5762;43.256;26.960;2023-01-30T01:52:01;100102.24;;;-0.91;100.00
11413;BME280;5762;43.256;26.960;2023-01-30T01:54:34;100098.47;;;-0.92;100.00
11413;BME280;5762;43.256;26.960;2023-01-30T01:57:04;100092.52;;;-0.88;100.00
11413;BME280;5762;43.256;26.960;2023-01-30T01:59:36;100091.95;;;-0.96;100.00
11413;BME280;5762;43.256;26.960;2023-01-30T02:02:07;100094.95;;;-1.02;100.00
11413;BME280;5762;43.256;26.960;2023-01-30T02:04:35;100093.80;;;-0.97;100.00
11413;BME280;5762;43.256;26.960;2023-01-30T02:07:21;100096.88;;;-1.00;100.00
11413;BME280;5762;43.256;26.960;2023-01-30T02:09:50;100091.70;;;-0.88;100.00
11413;BME280;5762;43.256;26.960;2023-01-30T02:12:19;100093.89;;;-0.94;100.00
11413;BME280;5762;43.256;26.960;2023-01-30T02:14:48;100087.88;;;-0.99;100.00
11413;BME280;5762;43.256;26.960;2023-01-30T02:17:17;100086.25;;;-1.00;100.00
11413;BME280;5762;43.256;26.960;2023-01-30T02:19:51;100089.27;;;-0.90;100.00
11413;BME280;5762;43.256;26.960;2023-01-30T02:27:35;100087.98;;;-1.12;100.00
11413;BME280;5762;43.256;26.960;2023-01-30T02:30:13;100086.05;;;-1.14;100.00
11413;BME280;5762;43.256;26.960;2023-01-30T02:35:27;100088.89;;;-1.09;100.00
11413;BME280;5762;43.256;26.960;2023-01-30T02:45:32;100090.02;;;-0.98;100.00
11413;BME280;5762;43.256;26.960;2023-01-30T02:48:04;100082.66;;;-0.81;100.00
11413;BME280;5762;43.256;26.960;2023-01-30T02:50:33;100086.35;;;-0.82;100.00
11413;BME280;5762;43.256;26.960;2023-01-30T02:52:58;100082.49;;;-0.70;100.00
11413;BME280;5762;43.256;26.960;2023-01-30T02:55:27;100087.72;;;-0.73;100.00
11413;BME280;5762;43.256;26.960;2023-01-30T02:57:56;100083.64;;;-0.91;100.00
11413;BME280;5762;43.256;26.960;2023-01-30T03:08:28;100077.90;;;-1.04;100.00
11413;BME280;5762;43.256;26.960;2023-01-30T03:16:08;100082.52;;;-1.24;100.00
11413;BME280;5762;43.256;26.960;2023-01-30T03:18:27;100084.27;;;-1.27;100.00
11413;BME280;5762;43.256;26.960;2023-01-30T03:20:56;100084.37;;;-1.24;100.00
11413;BME280;5762;43.256;26.960;2023-01-30T03:23:25;100083.77;;;-1.26;100.00
11413;BME280;5762;43.256;26.960;2023-01-30T03:25:54;100086.14;;;-1.34;100.00
11413;BME280;5762;43.256;26.960;2023-01-30T03:28:23;100086.96;;;-1.33;100.00
11413;BME280;5762;43.256;26.960;2023-01-30T03:30:52;100079.39;;;-1.30;100.00
11413;BME280;5762;43.256;26.960;2023-01-30T03:33:20;100083.38;;;-1.30;100.00
11413;BME280;5762;43.256;26.960;2023-01-30T03:35:49;100083.28;;;-1.32;100.00
11413;BME280;5762;43.256;26.960;2023-01-30T03:38:18;100080.89;;;-1.25;100.00
11413;BME280;5762;43.256;26.960;2023-01-30T03:40:48;100078.45;;;-1.26;100.00
11413;BME280;5762;43.256;26.960;2023-01-30T03:43:16;100077.00;;;-1.22;100.00
11413;BME280;5762;43.256;26.960;2023-01-30T03:45:45;100076.48;;;-1.22;100.00
11413;BME280;5762;43.256;26.960;2023-01-30T03:48:14;100069.94;;;-1.19;100.00
11413;BME280;5762;43.256;26.960;2023-01-30T03:50:43;100074.83;;;-1.16;100.00
11413;BME280;5762;43.256;26.960;2023-01-30T03:53:11;100069.46;;;-1.25;100.00
11413;BME280;5762;43.256;26.960;2023-01-30T03:55:40;100068.44;;;-1.24;100.00
11413;BME280;5762;43.256;26.960;2023-01-30T03:58:10;100066.69;;;-1.21;100.00
11413;BME280;5762;43.256;26.960;2023-01-30T04:00:39;100054.86;;;-1.25;100.00
11413;BME280;5762;43.256;26.960;2023-01-30T04:03:08;100057.39;;;-1.21;100.00
11413;BME280;5762;43.256;26.960;2023-01-30T04:05:37;100054.55;;;-1.26;100.00
11413;BME280;5762;43.256;26.960;2023-01-30T04:08:06;100055.89;;;-1.26;100.00
11413;BME280;5762;43.256;26.960;2023-01-30T04:10:34;100059.08;;;-1.33;100.00
11413;BME280;5762;43.256;26.960;2023-01-30T04:13:03;100057.16;;;-1.36;100.00
11413;BME280;5762;43.256;26.960;2023-01-30T04:15:32;100056.48;;;-1.40;100.00
11413;BME280;5762;43.256;26.960;2023-01-30T04:18:01;100055.98;;;-1.40;100.00
11413;BME280;5762;43.256;26.960;2023-01-30T04:20:29;100057.16;;;-1.36;100.00
11413;BME280;5762;43.256;26.960;2023-01-30T04:22:58;100058.18;;;-1.37;100.00
11413;BME280;5762;43.256;26.960;2023-01-30T04:25:27;100060.23;;;-1.39;100.00
11413;BME280;5762;43.256;26.960;2023-01-30T04:27:56;100061.56;;;-1.39;100.00
11413;BME280;5762;43.256;26.960;2023-01-30T04:30:25;100057.45;;;-1.35;100.00
11413;BME280;5762;43.256;26.960;2023-01-30T04:32:53;100056.41;;;-1.43;100.00
11413;BME280;5762;43.256;26.960;2023-01-30T04:35:22;100056.09;;;-1.44;100.00
11413;BME280;5762;43.256;26.960;2023-01-30T04:37:51;100056.80;;;-1.39;100.00
11413;BME280;5762;43.256;26.960;2023-01-30T04:40:20;100057.76;;;-1.49;100.00
11413;BME280;5762;43.256;26.960;2023-01-30T04:42:49;100056.09;;;-1.44;100.00
11413;BME280;5762;43.256;26.960;2023-01-30T04:45:17;100052.93;;;-1.43;100.00
11413;BME280;5762;43.256;26.960;2023-01-30T04:47:46;100052.14;;;-1.50;100.00
11413;BME280;5762;43.256;26.960;2023-01-30T04:50:15;100054.17;;;-1.46;100.00
11413;BME280;5762;43.256;26.960;2023-01-30T04:52:47;100057.87;;;-1.38;100.00
11413;BME280;5762;43.256;26.960;2023-01-30T04:55:16;100056.41;;;-1.43;100.00
11413;BME280;5762;43.256;26.960;2023-01-30T04:57:45;100058.66;;;-1.46;100.00
11413;BME280;5762;43.256;26.960;2023-01-30T05:00:14;100059.78;;;-1.45;100.00
11413;BME280;5762;43.256;26.960;2023-01-30T05:02:43;100060.38;;;-1.43;100.00
11413;BME280;5762;43.256;26.960;2023-01-30T05:05:12;100057.55;;;-1.48;100.00
11413;BME280;5762;43.256;26.960;2023-01-30T05:07:40;100065.48;;;-1.41;100.00
11413;BME280;5762;43.256;26.960;2023-01-30T05:10:09;100056.25;;;-1.39;100.00
11413;BME280;5762;43.256;26.960;2023-01-30T05:12:38;100057.39;;;-1.21;100.00
11413;BME280;5762;43.256;26.960;2023-01-30T05:15:07;100052.66;;;-1.35;100.00
11413;BME280;5762;43.256;26.960;2023-01-30T05:17:36;100059.08;;;-1.33;100.00
11413;BME280;5762;43.256;26.960;2023-01-30T05:20:06;100062.52;;;-1.26;100.00
11413;BME280;5762;43.256;26.960;2023-01-30T05:22:35;100063.91;;;-1.17;100.00
11413;BME280;5762;43.256;26.960;2023-01-30T05:25:05;100067.80;;;-1.20;100.00
11413;BME280;5762;43.256;26.960;2023-01-30T05:27:33;100062.97;;;-1.14;100.00
11413;BME280;5762;43.256;26.960;2023-01-30T05:30:02;100068.13;;;-1.25;100.00
11413;BME280;5762;43.256;26.960;2023-01-30T05:32:30;100071.00;;;-1.27;100.00
11413;BME280;5762;43.256;26.960;2023-01-30T05:34:58;100071.33;;;-1.10;100.00
11413;BME280;5762;43.256;26.960;2023-01-30T05:37:26;100069.94;;;-1.19;100.00
11413;BME280;5762;43.256;26.960;2023-01-30T05:39:55;100066.91;;;-1.07;100.00
11413;BME280;5762;43.256;26.960;2023-01-30T05:42:24;100060.30;;;-1.29;100.00
11413;BME280;5762;43.256;26.960;2023-01-30T05:44:53;100059.67;;;-1.09;100.00
11413;BME280;5762;43.256;26.960;2023-01-30T05:47:22;100070.39;;;-1.07;100.00
11413;BME280;5762;43.256;26.960;2023-01-30T05:49:51;100074.30;;;-1.00;100.00
11413;BME280;5762;43.256;26.960;2023-01-30T05:52:19;100072.23;;;-1.07;100.00
11413;BME280;5762;43.256;26.960;2023-01-30T05:54:47;100069.77;;;-1.24;100.00
11413;BME280;5762;43.256;26.960;2023-01-30T05:57:16;100075.59;;;-1.25;100.00
11413;BME280;5762;43.256;26.960;2023-01-30T05:59:45;100075.38;;;-1.23;100.00
11413;BME280;5762;43.256;26.960;2023-01-30T06:02:16;100069.73;;;-1.18;100.00
11413;BME280;5762;43.256;26.960;2023-01-30T06:04:44;100069.88;;;-1.06;100.00
11413;BME280;5762;43.256;26.960;2023-01-30T06:07:13;100068.58;;;-1.13;100.00
11413;BME280;5762;43.256;26.960;2023-01-30T06:09:42;100069.22;;;-1.17;100.00
11413;BME280;5762;43.256;26.960;2023-01-30T06:12:11;100065.75;;;-1.18;100.00
11413;BME280;5762;43.256;26.960;2023-01-30T06:14:39;100070.42;;;-1.13;100.00
11413;BME280;5762;43.256;26.960;2023-01-30T06:17:08;100066.65;;;-1.15;100.00
11413;BME280;5762;43.256;26.960;2023-01-30T06:19:37;100062.36;;;-1.16;100.00
11413;BME280;5762;43.256;26.960;2023-01-30T06:22:06;100065.67;;;-1.05;100.00
11413;BME280;5762;43.256;26.960;2023-01-30T06:24:34;100064.36;;;-0.95;100.00
11413;BME280;5762;43.256;26.960;2023-01-30T06:27:03;100065.73;;;-1.02;100.00
11413;BME280;5762;43.256;26.960;2023-01-30T06:29:32;100067.34;;;-1.10;100.00
11413;BME280;5762;43.256;26.960;2023-01-30T06:32:01;100067.66;;;-1.00;100.00
11413;BME280;5762;43.256;26.960;2023-01-30T06:34:31;100068.13;;;-0.94;100.00
11413;BME280;5762;43.256;26.960;2023-01-30T06:37:00;100062.97;;;-1.14;100.00
11413;BME280;5762;43.256;26.960;2023-01-30T06:39:28;100062.97;;;-1.14;100.00
11413;BME280;5762;43.256;26.960;2023-01-30T06:41:57;100059.76;;;-1.07;100.00
11413;BME280;5762;43.256;26.960;2023-01-30T06:44:26;100054.55;;;-0.95;100.00
11413;BME280;5762;43.256;26.960;2023-01-30T06:46:55;100055.06;;;-0.80;100.00
11413;BME280;5762;43.256;26.960;2023-01-30T06:49:23;100053.05;;;-1.00;100.00
11413;BME280;5762;43.256;26.960;2023-01-30T06:51:52;100054.37;;;-1.00;100.00
11413;BME280;5762;43.256;26.960;2023-01-30T06:54:20;100049.58;;;-0.85;100.00
11413;BME280;5762;43.256;26.960;2023-01-30T06:56:49;100049.41;;;-0.90;100.00
11413;BME280;5762;43.256;26.960;2023-01-30T06:59:17;100046.45;;;-0.91;100.00
11413;BME280;5762;43.256;26.960;2023-01-30T07:01:46;100043.63;;;-0.80;100.00
11413;BME280;5762;43.256;26.960;2023-01-30T07:04:15;100041.44;;;-0.65;100.00
11413;BME280;5762;43.256;26.960;2023-01-30T07:06:44;100041.47;;;-0.56;100.00
11413;BME280;5762;43.256;26.960;2023-01-30T07:09:13;100048.44;;;-0.46;100.00
11413;BME280;5762;43.256;26.960;2023-01-30T07:11:41;100040.54;;;-0.68;100.00
11413;BME280;5762;43.256;26.960;2023-01-30T07:14:10;100038.95;;;-0.85;100.00
11413;BME280;5762;43.256;26.960;2023-01-30T07:16:39;100041.05;;;-0.69;100.00
11413;BME280;5762;43.256;26.960;2023-01-30T07:19:08;100031.45;;;-0.94;100.00
11413;BME280;5762;43.256;26.960;2023-01-30T07:21:37;100037.07;;;-0.93;100.00
11413;BME280;5762;43.256;26.960;2023-01-30T07:24:06;100032.65;;;-0.75;100.00
11413;BME280;5762;43.256;26.960;2023-01-30T07:26:35;100033.89;;;-0.68;100.00
11413;BME280;5762;43.256;26.960;2023-01-30T07:29:03;100027.42;;;-0.88;100.00
11413;BME280;5762;43.256;26.960;2023-01-30T07:31:32;100029.48;;;-0.74;100.00
11413;BME280;5762;43.256;26.960;2023-01-30T07:34:01;100027.39;;;-0.97;100.00
11413;BME280;5762;43.256;26.960;2023-01-30T07:36:30;100030.25;;;-0.83;100.00
11413;BME280;5762;43.256;26.960;2023-01-30T07:38:59;100028.06;;;-0.77;100.00
11413;BME280;5762;43.256;26.960;2023-01-30T07:41:28;100025.23;;;-0.82;100.00
11413;BME280;5762;43.256;26.960;2023-01-30T07:43:57;100022.41;;;-0.87;100.00
11413;BME280;5762;43.256;26.960;2023-01-30T07:46:26;100023.27;;;-0.68;100.00
11413;BME280;5762;43.256;26.960;2023-01-30T07:48:56;100024.76;;;-0.72;100.00
11413;BME280;5762;43.256;26.960;2023-01-30T07:51:24;100014.13;;;-0.72;100.00
11413;BME280;5762;43.256;26.960;2023-01-30T07:53:53;100016.27;;;-0.62;100.00
11413;BME280;5762;43.256;26.960;2023-01-30T07:56:21;100019.06;;;-0.67;100.00
11413;BME280;5762;43.256;26.960;2023-01-30T07:58:50;100012.80;;;-0.72;100.00
11413;BME280;5762;43.256;26.960;2023-01-30T08:01:24;100011.55;;;-0.70;100.00
11413;BME280;5762;43.256;26.960;2023-01-30T08:03:48;100013.61;;;-0.62;100.00
11413;BME280;5762;43.256;26.960;2023-01-30T08:06:17;100012.12;;;-0.77;100.00
11413;BME280;5762;43.256;26.960;2023-01-30T08:08:46;100004.74;;;-0.65;100.00
11413;BME280;5762;43.256;26.960;2023-01-30T08:11:15;100004.96;;;-0.76;100.00
11413;BME280;5762;43.256;26.960;2023-01-30T08:13:44;100007.92;;;-0.75;100.00
11413;BME280;5762;43.256;26.960;2023-01-30T08:16:13;100004.09;;;-0.61;100.00
11413;BME280;5762;43.256;26.960;2023-01-30T08:18:42;100000.66;;;-0.43;100.00
11413;BME280;5762;43.256;26.960;2023-01-30T08:21:11;100003.02;;;-0.44;100.00
11413;BME280;5762;43.256;26.960;2023-01-30T08:23:39;99998.19;;;-0.72;100.00
11413;BME280;5762;43.256;26.960;2023-01-30T08:26:08;99999.43;;;-0.65;100.00
11413;BME280;5762;43.256;26.960;2023-01-30T08:28:39;100000.19;;;-0.58;100.00
11413;BME280;5762;43.256;26.960;2023-01-30T08:31:12;100002.13;;;-0.47;100.00
11413;BME280;5762;43.256;26.960;2023-01-30T08:33:41;99997.83;;;-0.57;100.00
11413;BME280;5762;43.256;26.960;2023-01-30T08:36:10;99992.17;;;-0.43;100.00
11413;BME280;5762;43.256;26.960;2023-01-30T08:38:38;99986.10;;;-0.50;100.00
11413;BME280;5762;43.256;26.960;2023-01-30T08:41:07;99994.17;;;-0.38;100.00
11413;BME280;5762;43.256;26.960;2023-01-30T08:43:36;99985.38;;;-0.39;100.00
11413;BME280;5762;43.256;26.960;2023-01-30T08:46:04;99976.67;;;-0.37;100.00
11413;BME280;5762;43.256;26.960;2023-01-30T08:48:32;99978.95;;;-0.22;100.00
11413;BME280;5762;43.256;26.960;2023-01-30T08:51:00;99977.02;;;-0.24;100.00
11413;BME280;5762;43.256;26.960;2023-01-30T08:53:29;99971.11;;;-0.26;100.00
11413;BME280;5762;43.256;26.960;2023-01-30T08:55:58;99970.16;;;-0.13;100.00
11413;BME280;5762;43.256;26.960;2023-01-30T08:58:27;99966.23;;;-0.29;100.00
11413;BME280;5762;43.256;26.960;2023-01-30T09:00:56;99967.27;;;-0.21;100.00
11413;BME280;5762;43.256;26.960;2023-01-30T09:03:24;99961.88;;;-0.05;100.00
11413;BME280;5762;43.256;26.960;2023-01-30T09:05:54;99962.91;;;-0.15;100.00
11413;BME280;5762;43.256;26.960;2023-01-30T09:08:22;99955.37;;;0.00;100.00
11413;BME280;5762;43.256;26.960;2023-01-30T09:10:51;99954.38;;;0.04;100.00
11413;BME280;5762;43.256;26.960;2023-01-30T09:13:19;99948.59;;;-0.14;100.00
11413;BME280;5762;43.256;26.960;2023-01-30T09:15:48;99941.67;;;0.06;100.00
11413;BME280;5762;43.256;26.960;2023-01-30T09:18:17;99943.27;;;-0.14;100.00
11413;BME280;5762;43.256;26.960;2023-01-30T09:20:45;99934.55;;;-0.12;100.00
11413;BME280;5762;43.256;26.960;2023-01-30T09:23:14;99928.81;;;0.03;100.00
11413;BME280;5762;43.256;26.960;2023-01-30T09:25:44;99922.06;;;-0.21;100.00
11413;BME280;5762;43.256;26.960;2023-01-30T09:28:13;99923.45;;;0.00;100.00
11413;BME280;5762;43.256;26.960;2023-01-30T09:30:42;99916.17;;;0.07;100.00
11413;BME280;5762;43.256;26.960;2023-01-30T09:33:11;99913.66;;;0.03;100.00
11413;BME280;5762;43.256;26.960;2023-01-30T09:35:40;99916.23;;;0.10;100.00
11413;BME280;5762;43.256;26.960;2023-01-30T09:38:09;99904.41;;;0.15;100.00
11413;BME280;5762;43.256;26.960;2023-01-30T09:40:52;99901.30;;;0.18;100.00
11413;BME280;5762;43.256;26.960;2023-01-30T09:45:57;99897.17;;;0.54;100.00
11413;BME280;5762;43.256;26.960;2023-01-30T09:48:28;99889.47;;;0.55;100.00
11413;BME280;5762;43.256;26.960;2023-01-30T09:51:05;99891.26;;;0.52;100.00
11413;BME280;5762;43.256;26.960;2023-01-30T09:55:59;99869.91;;;0.73;100.00
11413;BME280;5762;43.256;26.960;2023-01-30T10:01:24;99863.55;;;0.86;100.00
11413;BME280;5762;43.256;26.960;2023-01-30T10:04:12;99855.63;;;0.65;100.00
11413;BME280;5762;43.256;26.960;2023-01-30T10:06:24;99854.13;;;0.69;100.00
11413;BME280;5762;43.256;26.960;2023-01-30T10:09:04;99845.12;;;0.73;100.00
11413;BME280;5762;43.256;26.960;2023-01-30T10:16:58;99831.34;;;0.76;100.00
11413;BME280;5762;43.256;26.960;2023-01-30T10:24:47;99822.92;;;1.05;100.00
11413;BME280;5762;43.256;26.960;2023-01-30T10:27:16;99814.63;;;1.15;100.00
11413;BME280;5762;43.256;26.960;2023-01-30T10:29:51;99803.86;;;1.10;100.00
11413;BME280;5762;43.256;26.960;2023-01-30T10:32:18;99799.50;;;1.18;100.00
11413;BME280;5762;43.256;26.960;2023-01-30T10:34:50;99799.69;;;1.14;100.00
11413;BME280;5762;43.256;26.960;2023-01-30T10:40:11;99786.50;;;1.62;100.00
11413;BME280;5762;43.256;26.960;2023-01-30T10:45:21;99781.84;;;1.69;100.00
11413;BME280;5762;43.256;26.960;2023-01-30T10:50:44;99771.20;;;1.57;100.00
11413;BME280;5762;43.256;26.960;2023-01-30T10:55:44;99765.21;;;1.64;100.00
11413;BME280;5762;43.256;26.960;2023-01-30T10:58:23;99754.69;;;1.72;100.00
11413;BME280;5762;43.256;26.960;2023-01-30T11:00:59;99746.55;;;1.81;100.00
11413;BME280;5762;43.256;26.960;2023-01-30T11:03:30;99749.34;;;1.72;100.00
11413;BME280;5762;43.256;26.960;2023-01-30T11:06:03;99733.16;;;1.62;100.00
11413;BME280;5762;43.256;26.960;2023-01-30T11:08:30;99445.86;;;-0.17;100.00
11413;BME280;5762;43.256;26.960;2023-01-30T11:10:59;99721.44;;;1.63;100.00
11413;BME280;5762;43.256;26.960;2023-01-30T11:13:28;99716.81;;;1.73;100.00
11413;BME280;5762;43.256;26.960;2023-01-30T11:15:58;99713.77;;;1.66;100.00
11413;BME280;5762;43.256;26.960;2023-01-30T11:18:27;99711.96;;;1.55;100.00
11413;BME280;5762;43.256;26.960;2023-01-30T11:23:34;99699.56;;;1.32;100.00
11413;BME280;5762;43.256;26.960;2023-01-30T11:26:03;99695.04;;;1.33;100.00
11413;BME280;5762;43.256;26.960;2023-01-30T11:28:42;99686.14;;;1.27;100.00
11413;BME280;5762;43.256;26.960;2023-01-30T11:31:18;99686.23;;;1.32;100.00
11413;BME280;5762;43.256;26.960;2023-01-30T11:33:57;99677.66;;;1.30;100.00
11413;BME280;5762;43.256;26.960;2023-01-30T11:36:23;99677.56;;;1.25;100.00
11413;BME280;5762;43.256;26.960;2023-01-30T11:38:53;99671.77;;;1.28;100.00
11413;BME280;5762;43.256;26.960;2023-01-30T11:41:21;99658.05;;;1.22;100.00
11413;BME280;5762;43.256;26.960;2023-01-30T11:43:49;99660.58;;;1.29;100.00
11413;BME280;5762;43.256;26.960;2023-01-30T11:46:18;99649.77;;;1.36;100.00
11413;BME280;5762;43.256;26.960;2023-01-30T11:48:55;99656.59;;;1.46;100.00
11413;BME280;5762;43.256;26.960;2023-01-30T11:51:25;99647.78;;;1.45;100.00
11413;BME280;5762;43.256;26.960;2023-01-30T11:53:52;99641.39;;;1.46;100.00
11413;BME280;5762;43.256;26.960;2023-01-30T11:56:20;99635.02;;;1.47;100.00
11413;BME280;5762;43.256;26.960;2023-01-30T11:58:53;99631.73;;;1.43;100.00
11413;BME280;5762;43.256;26.960;2023-01-30T12:01:18;99629.44;;;1.49;100.00
11413;BME280;5762;43.256;26.960;2023-01-30T12:03:48;99626.09;;;1.56;100.00
11413;BME280;5762;43.256;26.960;2023-01-30T12:06:28;99627.02;;;1.47;100.00
11413;BME280;5762;43.256;26.960;2023-01-30T12:08:52;99620.77;;;1.56;100.00
11413;BME280;5762;43.256;26.960;2023-01-30T12:11:29;99619.75;;;1.59;100.00
11413;BME280;5762;43.256;26.960;2023-01-30T12:24:20;99596.67;;;1.51;100.00
11413;BME280;5762;43.256;26.960;2023-01-30T12:27:00;99588.80;;;1.58;100.00
11413;BME280;5762;43.256;26.960;2023-01-30T12:32:12;99584.20;;;1.71;100.00
11413;BME280;5762;43.256;26.960;2023-01-30T12:34:40;99580.11;;;1.65;100.00
11413;BME280;5762;43.256;26.960;2023-01-30T12:42:46;99554.45;;;1.62;100.00
11413;BME280;5762;43.256;26.960;2023-01-30T12:45:22;99562.64;;;1.39;100.00
11413;BME280;5762;43.256;26.960;2023-01-30T12:58:05;99551.78;;;1.62;100.00
11413;BME280;5762;43.256;26.960;2023-01-30T13:06:00;99542.86;;;1.54;100.00
11413;BME280;5762;43.256;26.960;2023-01-30T13:08:34;99550.81;;;1.51;100.00
11413;BME280;5762;43.256;26.960;2023-01-30T13:13:33;99548.06;;;1.63;100.00
11413;BME280;5762;43.256;26.960;2023-01-30T13:16:13;99548.71;;;1.70;100.00
11413;BME280;5762;43.256;26.960;2023-01-30T13:26:12;99538.16;;;1.61;100.00
11413;BME280;5762;43.256;26.960;2023-01-30T13:28:48;99529.69;;;1.47;100.00
11413;BME280;5762;43.256;26.960;2023-01-30T13:31:18;99539.69;;;1.38;100.00
11413;BME280;5762;43.256;26.960;2023-01-30T13:33:51;99534.41;;;1.43;100.00
11413;BME280;5762;43.256;26.960;2023-01-30T13:36:20;99530.56;;;1.33;100.00
11413;BME280;5762;43.256;26.960;2023-01-30T13:41:32;99529.52;;;1.54;100.00
11413;BME280;5762;43.256;26.960;2023-01-30T13:44:01;99524.15;;;1.51;100.00
11413;BME280;5762;43.256;26.960;2023-01-30T13:46:29;99525.80;;;1.55;100.00
11413;BME280;5762;43.256;26.960;2023-01-30T13:49:10;99526.45;;;1.45;100.00
11413;BME280;5762;43.256;26.960;2023-01-30T13:51:42;99519.70;;;1.40;100.00
11413;BME280;5762;43.256;26.960;2023-01-30T13:56:56;99518.65;;;1.58;100.00
11413;BME280;5762;43.256;26.960;2023-01-30T14:02:15;99515.91;;;1.53;100.00
11413;BME280;5762;43.256;26.960;2023-01-30T14:04:41;99511.91;;;1.53;100.00
11413;BME280;5762;43.256;26.960;2023-01-30T14:10:15;99514.16;;;1.61;100.00
11413;BME280;5762;43.256;26.960;2023-01-30T14:12:22;99516.22;;;1.73;100.00
11413;BME280;5762;43.256;26.960;2023-01-30T14:14:58;99512.81;;;1.80;100.00
11413;BME280;5762;43.256;26.960;2023-01-30T14:17:27;99511.95;;;1.55;100.00
11413;BME280;5762;43.256;26.960;2023-01-30T14:19:57;99508.39;;;1.50;100.00
11413;BME280;5762;43.256;26.960;2023-01-30T14:27:29;99491.25;;;1.62;100.00
11413;BME280;5762;43.256;26.960;2023-01-30T14:29:58;99493.98;;;1.67;100.00
11413;BME280;5762;43.256;26.960;2023-01-30T14:32:34;99493.56;;;1.56;100.00
11413;BME280;5762;43.256;26.960;2023-01-30T14:42:36;99484.39;;;1.50;100.00
11413;BME280;5762;43.256;26.960;2023-01-30T14:45:14;99482.65;;;1.58;100.00
11413;BME280;5762;43.256;26.960;2023-01-30T14:47:43;99477.80;;;1.55;100.00
11413;BME280;5762;43.256;26.960;2023-01-30T14:50:18;99475.59;;;1.49;100.00
11413;BME280;5762;43.256;26.960;2023-01-30T14:52:53;99476.27;;;1.59;100.00
11413;BME280;5762;43.256;26.960;2023-01-30T14:55:18;99473.39;;;1.63;100.00
11413;BME280;5762;43.256;26.960;2023-01-30T14:57:57;99468.66;;;1.67;100.00
11413;BME280;5762;43.256;26.960;2023-01-30T15:00:26;99466.52;;;1.67;100.00
11413;BME280;5762;43.256;26.960;2023-01-30T15:02:56;99468.47;;;1.55;100.00
11413;BME280;5762;43.256;26.960;2023-01-30T15:05:30;99471.91;;;1.53;100.00
11413;BME280;5762;43.256;26.960;2023-01-30T15:07:58;99472.34;;;1.64;100.00
11413;BME280;5762;43.256;26.960;2023-01-30T15:10:33;99457.95;;;1.65;100.00